createdAt,value
2019-06-20T00:00:52.000Z,89.70
2019-06-20T00:03:20.836Z,90.30
2019-06-20T00:05:49.523Z,90.60
2019-06-20T00:08:18.270Z,90.80
2019-06-20T00:10:46.996Z,90.90
2019-06-20T00:13:15.582Z,91.00
2019-06-20T00:15:44.763Z,91.20
2019-06-20T00:18:13.529Z,91.20
2019-06-20T00:20:43.105Z,91.40
2019-06-20T00:23:11.767Z,91.00
2019-06-20T00:25:40.642Z,91.30
2019-06-20T00:28:09.391Z,91.10
2019-06-20T00:30:38.020Z,91.30
2019-06-20T00:33:06.948Z,91.60
2019-06-20T00:35:35.522Z,91.80
2019-06-20T00:38:04.127Z,91.90
2019-06-20T00:40:32.787Z,92.10
2019-06-20T00:43:16.344Z,92.20
2019-06-20T00:45:31.686Z,92.10
2019-06-20T00:48:00.398Z,92.10
2019-06-20T00:50:29.046Z,92.10
2019-06-20T00:52:57.716Z,91.80
2019-06-20T00:55:26.563Z,92.10
2019-06-20T00:57:55.121Z,92.30
2019-06-20T01:00:23.793Z,92.30
2019-06-20T01:02:52.384Z,92.60
2019-06-20T01:05:21.412Z,92.80
2019-06-20T01:07:50.104Z,93.00
2019-06-20T01:10:18.985Z,93.00
2019-06-20T01:12:47.603Z,93.00
2019-06-20T01:15:16.767Z,93.10
2019-06-20T01:17:45.493Z,93.10
2019-06-20T01:20:15.866Z,93.10
2019-06-20T01:22:44.532Z,93.00
2019-06-20T01:25:13.436Z,92.90
2019-06-20T01:27:42.148Z,92.80
2019-06-20T01:30:11.783Z,93.00
2019-06-20T01:32:40.588Z,93.10
2019-06-20T01:35:09.904Z,93.20
2019-06-20T01:37:38.899Z,93.00
2019-06-20T01:40:08.140Z,93.20
2019-06-20T01:42:36.781Z,93.00
2019-06-20T01:45:08.565Z,93.20
2019-06-20T01:47:37.309Z,93.10
2019-06-20T01:50:07.243Z,93.00
2019-06-20T01:52:36.022Z,92.90
2019-06-20T01:55:05.738Z,92.80
2019-06-20T01:57:34.606Z,93.00
2019-06-20T02:00:03.922Z,93.10
2019-06-20T02:02:32.773Z,93.10
2019-06-20T02:05:01.537Z,93.10
2019-06-20T02:07:30.551Z,93.00
2019-06-20T02:09:59.437Z,93.00
2019-06-20T02:12:27.964Z,92.90
2019-06-20T02:14:56.492Z,93.00
2019-06-20T02:17:25.038Z,92.90
2019-06-20T02:19:53.774Z,92.90
2019-06-20T02:22:22.381Z,92.80
2019-06-20T02:24:51.126Z,92.60
2019-06-20T02:27:20.938Z,92.50
2019-06-20T02:29:49.493Z,92.40
2019-06-20T02:32:18.267Z,92.30
2019-06-20T02:34:47.101Z,92.60
2019-06-20T02:37:15.770Z,92.60
2019-06-20T02:39:44.450Z,92.60
2019-06-20T02:42:13.279Z,92.50
2019-06-20T02:44:41.935Z,92.50
2019-06-20T02:47:10.890Z,92.50
2019-06-20T02:49:39.514Z,92.40
2019-06-20T02:52:08.835Z,92.50
2019-06-20T02:54:37.499Z,92.50
2019-06-20T02:57:06.069Z,92.80
2019-06-20T02:59:34.727Z,92.60
2019-06-20T03:02:03.327Z,92.70
2019-06-20T03:04:32.383Z,92.60
2019-06-20T03:07:01.415Z,92.70
2019-06-20T03:09:30.283Z,92.60
2019-06-20T03:11:59.046Z,92.70
2019-06-20T03:14:41.787Z,92.80
2019-06-20T03:16:59.653Z,92.90
2019-06-20T03:19:29.063Z,92.80
2019-06-20T03:21:58.320Z,92.80
2019-06-20T03:24:27.540Z,92.80
2019-06-20T03:26:57.481Z,92.90
2019-06-20T03:29:26.832Z,92.90
2019-06-20T03:31:56.316Z,93.00
2019-06-20T03:34:26.015Z,93.10
2019-06-20T03:36:55.549Z,93.00
2019-06-20T03:39:25.005Z,92.90
2019-06-20T03:41:54.834Z,92.90
2019-06-20T03:44:24.630Z,93.00
2019-06-20T03:46:53.760Z,93.00
2019-06-20T03:49:23.324Z,92.80
2019-06-20T03:51:52.572Z,92.70
2019-06-20T03:54:22.075Z,92.70
2019-06-20T03:56:51.650Z,92.60
2019-06-20T03:59:20.749Z,92.80
2019-06-20T04:01:50.406Z,92.90
2019-06-20T04:04:19.606Z,92.80
2019-06-20T04:06:49.505Z,92.80
2019-06-20T04:09:19.006Z,92.70
2019-06-20T04:11:48.316Z,92.50
2019-06-20T04:14:17.619Z,92.40
2019-06-20T04:16:46.853Z,92.40
2019-06-20T04:19:16.415Z,92.30
2019-06-20T04:21:45.487Z,92.30
2019-06-20T04:24:14.764Z,92.20
2019-06-20T04:26:44.042Z,92.10
2019-06-20T04:29:13.253Z,91.80
2019-06-20T04:31:42.759Z,91.90
2019-06-20T04:34:12.253Z,91.90
2019-06-20T04:36:42.026Z,91.80
2019-06-20T04:39:19.126Z,91.60
2019-06-20T04:41:42.748Z,91.70
2019-06-20T04:44:12.562Z,91.70
2019-06-20T04:46:52.586Z,91.90
2019-06-20T04:49:22.058Z,91.90
2019-06-20T04:51:51.485Z,92.00
2019-06-20T04:54:20.894Z,92.00
2019-06-20T04:56:50.507Z,92.10
2019-06-20T04:59:19.884Z,92.00
2019-06-20T05:01:49.249Z,91.90
2019-06-20T05:04:18.285Z,91.60
2019-06-20T05:06:50.459Z,91.80
2019-06-20T05:09:19.982Z,91.90
2019-06-20T05:11:49.364Z,91.90
2019-06-20T05:14:19.590Z,92.00
2019-06-20T05:16:49.135Z,92.00
2019-06-20T05:19:18.393Z,92.00
2019-06-20T05:21:48.106Z,91.90
2019-06-20T05:24:17.705Z,92.00
2019-06-20T05:26:47.137Z,91.70
2019-06-20T05:29:16.664Z,90.80
2019-06-20T05:31:46.200Z,90.80
2019-06-20T05:34:15.476Z,90.40
2019-06-20T05:36:44.689Z,90.20
2019-06-20T05:39:13.857Z,90.30
2019-06-20T05:41:43.251Z,90.10
2019-06-20T05:44:12.743Z,90.00
2019-06-20T05:46:43.005Z,89.10
2019-06-20T05:49:12.209Z,88.80
2019-06-20T05:51:41.826Z,87.80
2019-06-20T05:54:11.398Z,86.80
2019-06-20T05:56:40.708Z,85.60
2019-06-20T05:59:10.170Z,87.60
2019-06-20T06:01:39.798Z,88.80
2019-06-20T06:04:09.528Z,90.10
2019-06-20T06:06:38.993Z,89.70
2019-06-20T06:09:09.571Z,89.40
2019-06-20T06:11:39.460Z,88.70
2019-06-20T06:14:09.009Z,88.30
2019-06-20T06:16:38.408Z,89.30
2019-06-20T06:19:07.910Z,88.20
2019-06-20T06:21:37.400Z,88.00
2019-06-20T06:24:06.975Z,87.50
2019-06-20T06:26:36.043Z,87.80
2019-06-20T06:29:05.671Z,86.80
2019-06-20T06:31:35.120Z,87.30
2019-06-20T06:34:04.359Z,87.90
2019-06-20T06:36:33.630Z,87.90
2019-06-20T06:39:02.792Z,88.30
2019-06-20T06:41:31.931Z,87.70
2019-06-20T06:44:01.052Z,87.60
2019-06-20T06:46:43.677Z,87.10
2019-06-20T06:49:01.765Z,87.80
2019-06-20T06:51:31.316Z,87.30
2019-06-20T06:54:00.820Z,86.90
2019-06-20T06:56:30.163Z,86.00
2019-06-20T06:58:59.790Z,85.80
2019-06-20T07:01:29.357Z,86.50
2019-06-20T07:03:59.011Z,86.40
2019-06-20T07:06:28.181Z,86.30
2019-06-20T07:08:57.755Z,86.90
2019-06-20T07:11:27.385Z,86.40
2019-06-20T07:13:56.497Z,87.30
2019-06-20T07:16:25.918Z,87.00
2019-06-20T07:18:55.435Z,86.30
2019-06-20T07:21:25.128Z,85.70
2019-06-20T07:23:54.635Z,83.90
2019-06-20T07:26:24.195Z,83.80
2019-06-20T07:28:54.106Z,83.70
2019-06-20T07:31:23.656Z,82.90
2019-06-20T07:33:53.204Z,82.30
2019-06-20T07:36:22.406Z,81.70
2019-06-20T07:38:52.298Z,81.20
2019-06-20T07:41:21.763Z,81.20
2019-06-20T07:43:51.233Z,80.70
2019-06-20T07:46:20.667Z,80.00
2019-06-20T07:48:49.940Z,78.70
2019-06-20T07:51:19.484Z,77.90
2019-06-20T07:53:48.797Z,78.60
2019-06-20T07:56:17.960Z,78.10
2019-06-20T07:58:46.907Z,78.60
2019-06-20T08:01:16.057Z,78.60
2019-06-20T08:03:45.430Z,78.20
2019-06-20T08:06:14.635Z,76.40
2019-06-20T08:08:43.852Z,78.20
2019-06-20T08:11:13.188Z,78.10
2019-06-20T08:13:42.889Z,79.30
2019-06-20T08:16:12.326Z,77.90
2019-06-20T08:18:42.185Z,77.30
2019-06-20T08:21:12.136Z,77.50
2019-06-20T08:23:41.390Z,75.80
2019-06-20T08:26:11.039Z,76.30
2019-06-20T08:28:40.505Z,75.10
2019-06-20T08:31:10.123Z,75.20
2019-06-20T08:33:39.543Z,77.30
2019-06-20T08:36:09.403Z,77.60
2019-06-20T08:38:38.677Z,77.10
2019-06-20T08:41:07.707Z,78.10
2019-06-20T08:43:37.033Z,76.70
2019-06-20T08:46:10.066Z,76.70
2019-06-20T08:48:36.959Z,75.00
2019-06-20T08:51:06.626Z,75.90
2019-06-20T08:53:36.010Z,73.20
2019-06-20T08:56:05.533Z,73.10
2019-06-20T08:58:35.081Z,70.20
2019-06-20T09:03:34.692Z,69.60
2019-06-20T09:06:04.418Z,67.50
2019-06-20T09:08:33.780Z,66.80
2019-06-20T09:11:04.069Z,68.40
2019-06-20T09:13:33.561Z,68.30
2019-06-20T09:16:03.315Z,65.60
2019-06-20T09:18:32.849Z,66.60
2019-06-20T09:21:02.440Z,66.40
2019-06-20T09:23:31.869Z,67.10
2019-06-20T09:26:01.974Z,67.90
2019-06-20T09:28:31.307Z,68.30
2019-06-20T09:31:00.484Z,67.00
2019-06-20T09:33:29.527Z,66.80
2019-06-20T09:35:59.575Z,68.10
2019-06-20T09:38:29.428Z,69.30
2019-06-20T09:40:59.191Z,68.80
2019-06-20T09:43:29.250Z,70.30
2019-06-20T09:45:58.683Z,70.70
2019-06-20T09:48:28.220Z,69.80
2019-06-20T09:50:58.555Z,69.60
2019-06-20T09:53:28.189Z,73.10
2019-06-20T09:55:57.820Z,75.60
2019-06-20T09:58:27.771Z,79.60
2019-06-20T10:00:57.468Z,80.70
2019-06-20T10:03:26.880Z,85.10
2019-06-20T10:05:56.710Z,84.70
2019-06-20T10:08:26.348Z,85.80
2019-06-20T10:10:56.286Z,84.70
2019-06-20T10:13:25.809Z,83.50
2019-06-20T10:15:55.660Z,80.00
2019-06-20T10:18:25.132Z,75.50
2019-06-20T10:20:54.598Z,73.00
2019-06-20T10:23:24.433Z,73.80
2019-06-20T10:25:53.759Z,74.00
2019-06-20T10:28:23.105Z,77.50
2019-06-20T10:30:53.428Z,78.90
2019-06-20T10:33:23.110Z,78.70
2019-06-20T10:35:52.696Z,82.40
2019-06-20T10:38:22.214Z,83.60
2019-06-20T10:40:52.059Z,85.70
2019-06-20T10:43:21.586Z,84.20
2019-06-20T10:45:50.998Z,82.70
2019-06-20T10:48:20.462Z,83.30
2019-06-20T10:50:49.860Z,80.80
2019-06-20T10:53:19.622Z,79.10
2019-06-20T10:55:49.057Z,79.70
2019-06-20T10:58:18.354Z,76.60
2019-06-20T11:00:48.370Z,72.10
2019-06-20T11:03:18.086Z,68.80
2019-06-20T11:05:48.151Z,71.50
2019-06-20T11:08:17.448Z,67.10
2019-06-20T11:10:47.198Z,67.60
2019-06-20T11:13:16.446Z,65.30
2019-06-20T11:15:46.221Z,68.50
2019-06-20T11:18:15.744Z,69.30
2019-06-20T11:20:46.579Z,69.40
2019-06-20T11:23:16.063Z,63.30
2019-06-20T11:25:46.638Z,64.50
2019-06-20T11:28:16.202Z,62.30
2019-06-20T11:30:55.991Z,61.20
2019-06-20T11:33:16.934Z,61.50
2019-06-20T11:35:46.342Z,62.60
2019-06-20T11:38:15.451Z,60.10
2019-06-20T11:40:44.593Z,61.60
2019-06-20T11:43:15.242Z,61.70
2019-06-20T11:45:47.298Z,64.30
2019-06-20T11:48:17.020Z,64.60
2019-06-20T11:50:46.872Z,64.50
2019-06-20T11:53:16.498Z,63.80
2019-06-20T11:55:45.685Z,61.10
2019-06-20T11:58:15.028Z,58.70
2019-06-20T12:00:44.413Z,58.40
2019-06-20T12:03:13.707Z,57.70
2019-06-20T12:05:43.261Z,56.30
2019-06-20T12:08:12.386Z,54.60
2019-06-20T12:10:43.083Z,52.90
2019-06-20T12:13:12.297Z,54.20
2019-06-20T12:15:42.759Z,54.60
2019-06-20T12:18:12.276Z,54.20
2019-06-20T12:20:42.813Z,55.50
2019-06-20T12:23:12.502Z,54.00
2019-06-20T12:25:42.646Z,53.40
2019-06-20T12:28:12.643Z,53.60
2019-06-20T12:30:43.459Z,51.40
2019-06-20T12:33:14.080Z,49.60
2019-06-20T12:35:44.497Z,49.70
2019-06-20T12:38:15.237Z,53.40
2019-06-20T12:40:46.161Z,55.90
2019-06-20T12:43:14.984Z,55.40
2019-06-20T12:45:44.291Z,54.50
2019-06-20T12:48:14.075Z,56.50
2019-06-20T12:50:43.345Z,55.50
2019-06-20T12:53:12.835Z,53.20
2019-06-20T12:55:42.431Z,51.50
2019-06-20T12:58:11.479Z,52.40
2019-06-20T13:00:41.672Z,54.00
2019-06-20T13:03:10.532Z,54.30
2019-06-20T13:05:40.133Z,53.40
2019-06-20T13:08:09.625Z,54.40
2019-06-20T13:10:40.243Z,54.90
2019-06-20T13:13:09.635Z,56.40
2019-06-20T13:15:39.043Z,54.90
2019-06-20T13:18:09.634Z,54.90
2019-06-20T13:20:40.534Z,56.90
2019-06-20T13:23:09.923Z,58.70
2019-06-20T13:25:40.878Z,57.60
2019-06-20T13:28:10.096Z,58.20
2019-06-20T13:30:40.275Z,57.60
2019-06-20T13:33:10.254Z,58.20
2019-06-20T13:35:41.584Z,58.30
2019-06-20T13:38:10.829Z,59.40
2019-06-20T13:40:41.379Z,58.30
2019-06-20T13:43:10.958Z,55.30
2019-06-20T13:45:41.193Z,55.70
2019-06-20T13:48:11.358Z,53.50
2019-06-20T13:50:41.914Z,53.70
2019-06-20T13:53:10.849Z,54.60
2019-06-20T13:55:41.210Z,56.10
2019-06-20T13:58:11.243Z,56.60
2019-06-20T14:00:42.825Z,55.80
2019-06-20T14:03:12.389Z,54.10
2019-06-20T14:05:42.832Z,51.30
2019-06-20T14:08:12.644Z,52.70
2019-06-20T14:10:44.123Z,52.30
2019-06-20T14:13:19.233Z,53.20
2019-06-20T14:15:44.913Z,53.40
2019-06-20T14:18:15.476Z,55.30
2019-06-20T14:20:45.055Z,55.40
2019-06-20T14:23:14.892Z,55.10
2019-06-20T14:25:44.155Z,54.80
2019-06-20T14:28:13.616Z,54.30
2019-06-20T14:30:44.467Z,54.30
2019-06-20T14:33:14.117Z,53.00
2019-06-20T14:35:45.344Z,53.20
2019-06-20T14:38:14.815Z,52.60
2019-06-20T14:40:45.301Z,53.60
2019-06-20T14:43:14.920Z,55.10
2019-06-20T14:45:45.537Z,55.20
2019-06-20T14:48:15.619Z,56.00
2019-06-20T14:50:46.461Z,58.70
2019-06-20T14:53:15.482Z,62.40
2019-06-20T14:55:46.014Z,66.90
2019-06-20T14:58:16.033Z,67.70
2019-06-20T15:00:46.974Z,68.90
2019-06-20T15:03:16.458Z,70.40
2019-06-20T15:05:46.592Z,72.60
2019-06-20T15:08:16.831Z,75.20
2019-06-20T15:10:48.071Z,76.90
2019-06-20T15:13:17.505Z,77.40
2019-06-20T15:15:47.907Z,76.60
2019-06-20T15:18:17.645Z,74.50
2019-06-20T15:20:48.299Z,71.80
2019-06-20T15:23:17.659Z,74.10
2019-06-20T15:25:48.752Z,73.70
2019-06-20T15:28:17.212Z,74.80
2019-06-20T15:30:47.698Z,76.80
2019-06-20T15:33:17.220Z,78.20
2019-06-20T15:35:47.247Z,77.50
2019-06-20T15:38:17.245Z,78.40
2019-06-20T15:40:47.881Z,78.80
2019-06-20T15:43:17.336Z,78.80
2019-06-20T15:45:48.373Z,79.10
2019-06-20T15:48:17.310Z,78.80
2019-06-20T15:50:46.919Z,80.00
2019-06-20T15:53:16.461Z,81.50
2019-06-20T15:55:45.731Z,82.90
2019-06-20T15:58:15.014Z,81.30
2019-06-20T16:00:44.213Z,80.40
2019-06-20T16:03:14.797Z,80.80
2019-06-20T16:05:44.741Z,80.90
2019-06-20T16:08:14.276Z,78.70
2019-06-20T16:10:43.593Z,78.50
2019-06-20T16:13:12.737Z,77.00
2019-06-20T16:15:42.439Z,78.00
2019-06-20T16:18:11.736Z,78.60
2019-06-20T16:20:41.245Z,77.40
2019-06-20T16:23:10.770Z,76.70
2019-06-20T16:25:39.763Z,75.70
2019-06-20T16:28:08.936Z,73.90
2019-06-20T16:30:38.530Z,73.00
2019-06-20T16:33:07.727Z,70.90
2019-06-20T16:35:37.004Z,71.30
2019-06-20T16:38:06.369Z,70.90
2019-06-20T16:40:47.225Z,72.50
2019-06-20T16:43:16.828Z,70.50
2019-06-20T16:45:45.957Z,69.40
2019-06-20T16:48:15.391Z,69.90
2019-06-20T16:50:44.675Z,67.40
2019-06-20T16:53:14.144Z,66.40
2019-06-20T16:55:43.566Z,64.20
2019-06-20T16:58:13.078Z,65.50
2019-06-20T17:00:42.770Z,65.50
2019-06-20T17:03:12.640Z,64.50
2019-06-20T17:05:42.155Z,63.80
2019-06-20T17:08:11.362Z,63.90
2019-06-20T17:10:40.775Z,63.30
2019-06-20T17:13:10.251Z,64.50
2019-06-20T17:15:39.936Z,65.50
2019-06-20T17:18:09.113Z,66.60
2019-06-20T17:20:38.833Z,66.60
2019-06-20T17:23:08.447Z,66.10
2019-06-20T17:25:37.900Z,66.90
2019-06-20T17:28:07.293Z,68.10
2019-06-20T17:30:37.000Z,69.20
2019-06-20T17:33:06.490Z,70.60
2019-06-20T17:35:35.967Z,71.00
2019-06-20T17:38:05.699Z,70.50
2019-06-20T17:40:34.923Z,69.10
2019-06-20T17:43:04.521Z,68.30
2019-06-20T17:45:33.892Z,67.80
2019-06-20T17:48:03.165Z,66.30
2019-06-20T17:50:32.228Z,66.10
2019-06-20T17:53:01.268Z,66.70
2019-06-20T17:55:30.550Z,67.00
2019-06-20T17:57:59.993Z,67.90
2019-06-20T18:00:29.524Z,68.80
2019-06-20T18:02:58.977Z,70.10
2019-06-20T18:05:28.228Z,70.70
2019-06-20T18:07:57.238Z,71.30
2019-06-20T18:10:26.795Z,71.80
2019-06-20T18:12:56.087Z,69.50
2019-06-20T18:15:26.862Z,70.30
2019-06-20T18:17:56.233Z,71.40
2019-06-20T18:20:26.060Z,71.90
2019-06-20T18:22:55.081Z,72.60
2019-06-20T18:25:24.605Z,73.20
2019-06-20T18:27:53.578Z,73.40
2019-06-20T18:30:25.704Z,73.90
2019-06-20T18:32:55.364Z,74.10
2019-06-20T18:35:24.654Z,74.70
2019-06-20T18:37:53.961Z,74.30
2019-06-20T18:40:23.143Z,74.80
2019-06-20T18:42:52.333Z,74.90
2019-06-20T18:45:21.597Z,75.20
2019-06-20T18:47:50.876Z,75.30
2019-06-20T18:50:20.069Z,75.70
2019-06-20T18:52:52.495Z,75.90
2019-06-20T18:55:20.603Z,76.10
2019-06-20T18:57:49.657Z,76.30
2019-06-20T19:00:33.593Z,76.60
2019-06-20T19:02:50.775Z,77.00
2019-06-20T19:05:20.459Z,77.60
2019-06-20T19:07:49.757Z,78.00
2019-06-20T19:10:21.743Z,78.40
2019-06-20T19:12:50.997Z,79.00
2019-06-20T19:15:21.912Z,78.60
2019-06-20T19:17:51.348Z,78.80
2019-06-20T19:20:20.688Z,79.00
2019-06-20T19:22:50.333Z,78.40
2019-06-20T19:25:20.071Z,78.80
2019-06-20T19:27:49.433Z,78.00
2019-06-20T19:30:19.332Z,78.70
2019-06-20T19:32:48.761Z,79.40
2019-06-20T19:35:18.298Z,79.60
2019-06-20T19:37:47.375Z,79.70
2019-06-20T19:40:18.588Z,79.70
2019-06-20T19:42:47.688Z,79.70
2019-06-20T19:45:16.879Z,79.10
2019-06-20T19:47:46.095Z,79.30
2019-06-20T19:50:15.356Z,79.00
2019-06-20T19:52:44.527Z,79.10
2019-06-20T19:55:14.042Z,78.50
2019-06-20T19:57:43.158Z,79.00
2019-06-20T20:00:12.982Z,78.90
2019-06-20T20:02:42.155Z,78.60
2019-06-20T20:05:19.033Z,78.70
2019-06-20T20:07:41.669Z,78.20
2019-06-20T20:10:10.943Z,78.80
2019-06-20T20:12:39.682Z,78.60
2019-06-20T20:15:12.540Z,78.60
2019-06-20T20:17:41.332Z,78.70
2019-06-20T20:20:10.884Z,78.80
2019-06-20T20:22:39.613Z,78.30
2019-06-20T20:25:09.032Z,78.90
2019-06-20T20:27:37.724Z,79.00
2019-06-20T20:30:10.695Z,79.00
2019-06-20T20:32:39.686Z,79.20
2019-06-20T20:35:08.531Z,79.10
2019-06-20T20:37:37.314Z,79.40
2019-06-20T20:40:08.437Z,79.30
2019-06-20T20:42:37.212Z,78.80
2019-06-20T20:45:07.254Z,78.80
2019-06-20T20:47:35.904Z,78.60
2019-06-20T20:50:06.161Z,78.40
2019-06-20T20:52:34.773Z,78.60
2019-06-20T20:55:04.501Z,79.00
2019-06-20T20:57:33.230Z,79.00
2019-06-20T21:00:02.244Z,79.10
2019-06-20T21:02:30.892Z,79.30
2019-06-20T21:04:59.446Z,79.10
2019-06-20T21:07:28.166Z,79.10
2019-06-20T21:09:56.832Z,79.60
2019-06-20T21:12:25.497Z,79.80
2019-06-20T21:14:54.128Z,80.20
2019-06-20T21:17:22.684Z,80.20
2019-06-20T21:19:51.310Z,80.40
2019-06-20T21:22:20.039Z,80.30
2019-06-20T21:24:48.630Z,80.40
2019-06-20T21:27:17.316Z,80.30
2019-06-20T21:29:45.960Z,79.80
2019-06-20T21:32:14.786Z,80.00
2019-06-20T21:34:43.337Z,80.00
2019-06-20T21:37:12.076Z,80.10
2019-06-20T21:39:40.595Z,80.10
2019-06-20T21:42:09.264Z,80.00
2019-06-20T21:44:37.845Z,80.20
2019-06-20T21:47:06.572Z,80.10
2019-06-20T21:49:35.207Z,80.50
2019-06-20T21:52:03.954Z,81.20
2019-06-20T21:54:32.587Z,81.40
2019-06-20T21:57:01.293Z,81.90
2019-06-20T21:59:29.962Z,81.60
2019-06-20T22:01:58.644Z,81.70
2019-06-20T22:04:27.285Z,82.40
2019-06-20T22:06:56.099Z,82.40
2019-06-20T22:09:24.891Z,82.60
2019-06-20T22:11:53.559Z,82.70
2019-06-20T22:14:22.126Z,82.70
2019-06-20T22:16:50.754Z,83.10
2019-06-20T22:19:19.357Z,83.00
2019-06-20T22:21:47.956Z,83.30
2019-06-20T22:24:16.567Z,83.50
2019-06-20T22:26:45.177Z,83.60
2019-06-20T22:29:13.899Z,83.90
2019-06-20T22:31:42.622Z,83.90
2019-06-20T22:34:11.334Z,84.00
2019-06-20T22:36:40.824Z,83.90
2019-06-20T22:39:09.698Z,83.90
2019-06-20T22:41:38.367Z,84.10
2019-06-20T22:44:06.884Z,84.30
2019-06-20T22:46:35.497Z,84.10
2019-06-20T22:49:04.184Z,84.40
2019-06-20T22:51:32.783Z,84.20
2019-06-20T22:54:01.500Z,84.40
2019-06-20T22:56:30.151Z,84.30
2019-06-20T22:58:58.773Z,84.50
2019-06-20T23:01:27.586Z,84.50
2019-06-20T23:03:56.442Z,84.60
2019-06-20T23:06:25.144Z,84.80
2019-06-20T23:08:53.705Z,85.10
2019-06-20T23:11:22.457Z,85.00
2019-06-20T23:13:51.074Z,85.00
2019-06-20T23:16:19.837Z,85.20
2019-06-20T23:18:48.480Z,85.50
2019-06-20T23:21:17.296Z,85.40
2019-06-20T23:23:45.961Z,85.40
2019-06-20T23:26:14.981Z,85.30
2019-06-20T23:28:45.229Z,85.00
2019-06-20T23:31:13.887Z,84.60
2019-06-20T23:33:42.559Z,84.80
2019-06-20T23:36:11.334Z,84.90
2019-06-20T23:38:39.973Z,85.10
2019-06-20T23:41:08.548Z,85.40
2019-06-20T23:43:37.226Z,85.50
2019-06-20T23:46:05.851Z,85.40
2019-06-20T23:48:34.543Z,85.60
2019-06-20T23:51:03.287Z,85.50
2019-06-20T23:53:32.122Z,85.50
2019-06-20T23:56:00.753Z,85.40
2019-06-20T23:58:29.434Z,84.80
